createdAt,value
2023-09-06T00:00:46.926Z,21.25
2023-09-06T00:03:14.459Z,20.20
2023-09-06T00:05:43.473Z,21.83
2023-09-06T00:08:14.408Z,27.65
2023-09-06T00:10:43.274Z,25.75
2023-09-06T00:13:12.284Z,22.00
2023-09-06T00:15:39.083Z,27.88
2023-09-06T00:18:08.014Z,25.80
2023-09-06T00:20:36.401Z,26.50
2023-09-06T00:23:06.006Z,24.92
2023-09-06T00:28:02.275Z,24.92
2023-09-06T00:30:29.293Z,23.15
2023-09-06T00:32:56.254Z,25.83
2023-09-06T00:35:25.475Z,25.35
2023-09-06T00:37:56.909Z,24.88
2023-09-06T00:40:23.988Z,23.20
2023-09-06T00:45:32.650Z,22.30
2023-09-06T00:48:00.368Z,23.88
2023-09-06T00:50:28.342Z,24.58
2023-09-06T00:52:57.018Z,27.42
2023-09-06T00:55:24.300Z,25.23
2023-09-06T00:57:51.339Z,28.25
2023-09-06T01:00:21.015Z,24.27
2023-09-06T01:05:17.735Z,23.15
2023-09-06T01:07:48.271Z,20.80
2023-09-06T01:10:15.069Z,23.45
2023-09-06T01:12:42.311Z,20.67
2023-09-06T01:15:11.591Z,22.60
2023-09-06T01:17:42.961Z,22.30
2023-09-06T01:20:30.371Z,26.67
2023-09-06T01:25:38.145Z,28.25
2023-09-06T01:28:05.436Z,20.52
2023-09-06T01:30:32.513Z,23.75
2023-09-06T01:32:59.499Z,22.58
2023-09-06T01:35:26.312Z,28.67
2023-09-06T01:37:53.090Z,23.48
2023-09-06T01:40:21.219Z,26.10
2023-09-06T01:42:48.797Z,26.10
2023-09-06T01:45:21.234Z,25.95
2023-09-06T01:47:51.127Z,23.60
2023-09-06T01:50:21.278Z,21.92
2023-09-06T01:52:48.978Z,31.27
2023-09-06T01:55:15.853Z,23.55
2023-09-06T01:57:42.480Z,26.83
2023-09-06T02:00:28.427Z,27.33
2023-09-06T02:02:56.499Z,93.63
2023-09-06T02:05:23.899Z,48.10
2023-09-06T02:07:51.305Z,82.82
2023-09-06T02:10:18.576Z,79.43
2023-09-06T02:12:45.958Z,81.72
2023-09-06T02:15:15.912Z,72.65
2023-09-06T02:17:43.860Z,45.47
2023-09-06T02:20:28.035Z,33.95
2023-09-06T02:22:57.249Z,57.38
2023-09-06T02:25:30.639Z,83.97
2023-09-06T02:27:59.343Z,71.60
2023-09-06T02:30:26.204Z,50.75
2023-09-06T02:32:56.267Z,88.80
2023-09-06T02:35:23.308Z,85.13
2023-09-06T02:37:51.277Z,72.82
2023-09-06T02:40:19.568Z,61.35
2023-09-06T02:42:46.354Z,72.70
2023-09-06T02:45:13.740Z,31.77
2023-09-06T02:47:50.711Z,77.85
2023-09-06T02:50:24.322Z,48.33
2023-09-06T02:52:55.020Z,62.53
2023-09-06T02:55:22.269Z,33.47
2023-09-06T02:57:50.693Z,29.35
2023-09-06T03:00:26.670Z,40.33
2023-09-06T03:03:07.421Z,45.45
2023-09-06T03:05:42.667Z,28.27
2023-09-06T03:08:11.584Z,35.00
2023-09-06T03:10:42.000Z,26.10
2023-09-06T03:13:10.447Z,47.20
2023-09-06T03:15:37.795Z,32.17
2023-09-06T03:18:06.612Z,37.22
2023-09-06T03:20:35.673Z,49.03
2023-09-06T03:23:18.218Z,68.60
2023-09-06T03:25:47.005Z,50.20
2023-09-06T03:28:13.665Z,75.20
2023-09-06T03:30:40.531Z,62.05
2023-09-06T03:33:07.882Z,49.80
2023-09-06T03:35:34.794Z,49.55
2023-09-06T03:38:01.600Z,45.58
2023-09-06T03:40:36.883Z,71.18
2023-09-06T03:43:16.106Z,75.10
2023-09-06T03:45:45.354Z,65.85
2023-09-06T03:48:14.373Z,84.63
2023-09-06T03:50:41.676Z,67.35
2023-09-06T03:53:08.395Z,99.28
2023-09-06T03:55:37.980Z,92.88
2023-09-06T03:58:08.589Z,96.40
2023-09-06T04:00:36.110Z,42.05
2023-09-06T04:03:05.219Z,33.80
2023-09-06T04:08:01.535Z,69.25
2023-09-06T04:10:33.457Z,63.08
2023-09-06T04:13:00.093Z,88.65
2023-09-06T04:15:26.810Z,69.63
2023-09-06T04:18:00.226Z,42.22
2023-09-06T04:20:28.551Z,85.93
2023-09-06T04:22:56.808Z,70.90
2023-09-06T04:25:24.113Z,57.20
2023-09-06T04:27:55.824Z,35.00
2023-09-06T04:30:24.445Z,68.13
2023-09-06T04:32:52.903Z,32.55
2023-09-06T04:35:19.935Z,30.70
2023-09-06T04:37:46.830Z,43.10
2023-09-06T04:40:14.299Z,34.45
2023-09-06T04:42:42.205Z,29.73
2023-09-06T04:45:11.985Z,36.05
2023-09-06T04:47:41.078Z,38.95
2023-09-06T04:50:08.638Z,31.70
2023-09-06T04:52:44.765Z,29.95
2023-09-06T04:55:13.978Z,22.85
2023-09-06T04:57:42.443Z,38.20
2023-09-06T05:00:17.157Z,14.52
2023-09-06T05:02:48.031Z,26.52
2023-09-06T05:05:16.378Z,28.73
2023-09-06T05:07:43.381Z,30.00
2023-09-06T05:10:11.239Z,40.38
2023-09-06T05:12:38.836Z,30.48
2023-09-06T05:15:06.620Z,39.00
2023-09-06T05:17:34.310Z,18.88
2023-09-06T05:20:29.625Z,27.50
2023-09-06T05:22:58.149Z,33.30
2023-09-06T05:25:25.679Z,73.10
2023-09-06T05:27:55.507Z,21.60
2023-09-06T05:30:22.261Z,107.55
2023-09-06T05:32:48.930Z,42.78
2023-09-06T05:35:15.703Z,28.83
2023-09-06T05:37:42.506Z,23.08
2023-09-06T05:40:10.419Z,46.00
2023-09-06T05:42:38.290Z,76.75
2023-09-06T05:45:05.640Z,60.28
2023-09-06T05:47:32.516Z,77.07
2023-09-06T05:49:59.438Z,71.07
2023-09-06T05:52:26.107Z,77.97
2023-09-06T05:54:55.370Z,61.88
2023-09-06T05:57:23.260Z,57.65
2023-09-06T05:59:50.035Z,65.95
2023-09-06T06:02:16.973Z,74.82
2023-09-06T06:04:46.669Z,90.78
2023-09-06T06:09:41.706Z,53.53
2023-09-06T06:12:08.644Z,62.65
2023-09-06T06:14:37.741Z,68.65
2023-09-06T06:17:06.674Z,72.10
2023-09-06T06:19:34.930Z,73.82
2023-09-06T06:22:02.986Z,34.92
2023-09-06T06:24:30.851Z,32.28
2023-09-06T06:26:57.659Z,23.08
2023-09-06T06:29:25.193Z,25.98
2023-09-06T06:31:52.402Z,34.60
2023-09-06T06:34:20.027Z,28.27
2023-09-06T06:36:47.815Z,18.92
2023-09-06T06:39:15.388Z,38.83
2023-09-06T06:41:43.274Z,56.33
2023-09-06T06:44:10.319Z,20.90
2023-09-06T06:46:39.999Z,22.20
2023-09-06T06:51:39.715Z,15.85
2023-09-06T06:54:09.625Z,23.25
2023-09-06T06:56:37.582Z,19.48
2023-09-06T06:59:05.239Z,14.57
2023-09-06T07:01:32.438Z,21.70
2023-09-06T07:03:59.596Z,22.58
2023-09-06T07:06:27.641Z,20.98
2023-09-06T07:08:55.812Z,17.70
2023-09-06T07:11:22.652Z,19.70
2023-09-06T07:13:50.589Z,39.67
2023-09-06T07:16:19.591Z,17.88
2023-09-06T07:18:48.306Z,23.25
2023-09-06T07:21:16.726Z,22.13
2023-09-06T07:23:44.199Z,21.52
2023-09-06T07:26:11.361Z,19.65
2023-09-06T07:31:15.686Z,17.38
2023-09-06T07:33:43.760Z,20.27
2023-09-06T07:36:12.253Z,16.45
2023-09-06T07:38:39.129Z,17.02
2023-09-06T07:41:09.273Z,16.33
2023-09-06T07:43:37.630Z,15.52
2023-09-06T07:46:07.705Z,16.65
2023-09-06T07:48:34.708Z,17.83
2023-09-06T07:51:05.323Z,15.30
2023-09-06T07:53:32.562Z,15.73
2023-09-06T07:55:59.401Z,16.95
2023-09-06T07:58:27.193Z,18.52
2023-09-06T08:01:06.148Z,18.25
2023-09-06T08:03:42.559Z,17.08
2023-09-06T08:06:09.346Z,18.85
2023-09-06T08:08:36.103Z,18.30
2023-09-06T08:11:02.797Z,21.55
2023-09-06T08:13:29.434Z,18.35
2023-09-06T08:15:55.995Z,19.63
2023-09-06T08:18:22.675Z,18.33
2023-09-06T08:20:49.561Z,17.55
2023-09-06T08:23:16.118Z,17.65
2023-09-06T08:25:42.776Z,16.88
2023-09-06T08:28:09.482Z,16.42
2023-09-06T08:30:36.310Z,15.45
2023-09-06T08:33:03.307Z,16.38
2023-09-06T08:35:29.994Z,16.30
2023-09-06T08:37:56.632Z,17.08
2023-09-06T08:40:23.483Z,17.20
2023-09-06T08:42:53.719Z,15.95
2023-09-06T08:45:23.974Z,15.80
2023-09-06T08:47:51.561Z,16.92
2023-09-06T08:50:18.585Z,15.20
2023-09-06T08:52:46.017Z,16.50
2023-09-06T08:55:13.169Z,13.50
2023-09-06T08:57:41.691Z,13.15
2023-09-06T09:00:10.919Z,13.82
2023-09-06T09:02:41.721Z,14.13
2023-09-06T09:05:20.459Z,13.50
2023-09-06T09:07:50.897Z,13.18
2023-09-06T09:10:18.240Z,15.07
2023-09-06T09:12:45.040Z,11.98
2023-09-06T09:17:57.000Z,13.13
2023-09-06T09:20:28.158Z,12.10
2023-09-06T09:23:03.125Z,11.88
2023-09-06T09:25:30.937Z,11.80
2023-09-06T09:27:59.590Z,15.02
2023-09-06T09:33:00.460Z,12.13
2023-09-06T09:35:27.898Z,12.75
2023-09-06T09:37:55.054Z,9.73
2023-09-06T09:40:29.333Z,10.63
2023-09-06T09:43:03.691Z,10.77
2023-09-06T09:45:39.822Z,10.45
2023-09-06T09:48:08.103Z,10.45
2023-09-06T09:50:36.147Z,12.82
2023-09-06T09:53:20.449Z,12.35
2023-09-06T09:55:49.682Z,9.23
2023-09-06T09:58:18.605Z,11.20
2023-09-06T10:00:46.263Z,10.70
2023-09-06T10:03:14.927Z,11.35
2023-09-06T10:05:43.721Z,11.70
2023-09-06T10:08:11.536Z,10.70
2023-09-06T10:10:40.655Z,10.85
2023-09-06T10:13:09.761Z,12.35
2023-09-06T10:15:38.792Z,9.02
2023-09-06T10:20:36.270Z,9.70
2023-09-06T10:23:05.887Z,10.20
2023-09-06T10:25:33.305Z,9.95
2023-09-06T10:28:01.285Z,10.05
2023-09-06T10:36:14.775Z,9.50
2023-09-06T10:41:38.751Z,6.95
2023-09-06T10:44:07.414Z,7.72
2023-09-06T10:46:36.691Z,6.40
2023-09-06T10:49:28.688Z,6.18
2023-09-06T10:54:40.153Z,5.78
2023-09-06T10:57:11.539Z,6.03
2023-09-06T10:59:43.365Z,4.88
2023-09-06T11:02:28.223Z,6.15
2023-09-06T11:05:10.925Z,5.80
2023-09-06T11:07:50.171Z,5.88
2023-09-06T11:10:24.224Z,6.57
2023-09-06T11:12:55.725Z,4.63
2023-09-06T11:15:23.901Z,5.47
2023-09-06T11:17:53.833Z,6.10
2023-09-06T11:20:21.627Z,10.05
2023-09-06T11:22:51.343Z,6.72
2023-09-06T11:25:20.378Z,6.95
2023-09-06T11:27:48.305Z,8.75
2023-09-06T11:30:23.521Z,6.57
2023-09-06T11:32:52.379Z,5.90
2023-09-06T11:35:24.326Z,5.88
2023-09-06T11:37:55.037Z,9.88
2023-09-06T11:40:23.719Z,5.22
2023-09-06T11:42:54.425Z,6.20
2023-09-06T11:45:23.701Z,6.85
2023-09-06T11:47:54.243Z,4.88
2023-09-06T11:50:25.647Z,5.65
2023-09-06T11:52:58.670Z,5.07
2023-09-06T11:55:28.212Z,5.30
2023-09-06T11:57:59.169Z,10.38
2023-09-06T12:00:39.779Z,4.32
2023-09-06T12:05:50.234Z,5.80
2023-09-06T12:08:21.627Z,3.60
2023-09-06T12:10:52.014Z,5.22
2023-09-06T12:13:19.167Z,8.38
2023-09-06T12:15:46.879Z,4.75
2023-09-06T12:18:15.013Z,4.95
2023-09-06T12:20:42.037Z,3.92
2023-09-06T12:23:08.890Z,4.80
2023-09-06T12:25:35.444Z,4.15
2023-09-06T12:28:04.248Z,7.82
2023-09-06T12:30:32.344Z,4.90
2023-09-06T12:32:59.815Z,9.93
2023-09-06T12:35:26.822Z,3.78
2023-09-06T12:37:54.296Z,4.45
2023-09-06T12:40:29.994Z,6.22
2023-09-06T12:42:57.234Z,3.75
2023-09-06T12:45:29.340Z,5.85
2023-09-06T12:47:58.207Z,6.60
2023-09-06T12:52:53.949Z,8.63
2023-09-06T12:55:21.150Z,3.72
2023-09-06T12:57:48.324Z,5.25
2023-09-06T13:00:16.719Z,5.68
2023-09-06T13:02:44.407Z,4.10
2023-09-06T13:05:11.709Z,5.97
2023-09-06T13:07:38.685Z,5.53
2023-09-06T13:10:06.593Z,8.43
2023-09-06T13:12:34.053Z,6.45
2023-09-06T13:15:01.583Z,5.00
2023-09-06T13:17:28.257Z,4.68
2023-09-06T13:19:56.061Z,3.13
2023-09-06T13:22:23.155Z,2.60
2023-09-06T13:24:50.151Z,4.85
2023-09-06T13:27:16.982Z,3.70
2023-09-06T13:29:43.632Z,5.10
2023-09-06T13:32:10.754Z,5.03
2023-09-06T13:34:37.976Z,7.13
2023-09-06T13:37:05.777Z,3.67
2023-09-06T13:39:33.483Z,5.20
2023-09-06T13:42:02.074Z,3.90
2023-09-06T13:44:34.441Z,6.20
2023-09-06T13:47:01.511Z,4.80
2023-09-06T13:49:28.907Z,3.20
2023-09-06T13:51:55.693Z,6.13
2023-09-06T13:54:24.632Z,3.38
2023-09-06T13:56:52.216Z,4.30
2023-09-06T13:59:19.218Z,7.40
2023-09-06T14:01:46.403Z,6.55
2023-09-06T14:04:13.579Z,4.35
2023-09-06T14:06:40.809Z,4.75
2023-09-06T14:09:11.749Z,2.60
2023-09-06T14:11:39.805Z,4.97
2023-09-06T14:14:07.256Z,3.80
2023-09-06T14:16:34.255Z,4.72
2023-09-06T14:19:02.232Z,5.20
2023-09-06T14:21:30.086Z,3.72
2023-09-06T14:23:57.317Z,6.13
2023-09-06T14:26:23.920Z,4.53
2023-09-06T14:28:50.978Z,3.90
2023-09-06T14:31:17.971Z,4.95
2023-09-06T14:33:44.755Z,3.70
2023-09-06T14:36:12.097Z,5.93
2023-09-06T14:38:39.397Z,6.28
2023-09-06T14:41:06.156Z,6.18
2023-09-06T14:43:33.450Z,7.90
2023-09-06T14:46:05.619Z,5.20
2023-09-06T14:48:33.795Z,4.75
2023-09-06T14:51:02.540Z,3.38
2023-09-06T14:53:29.878Z,4.32
2023-09-06T14:56:01.212Z,4.35
2023-09-06T14:58:29.318Z,4.72
2023-09-06T15:00:56.975Z,4.82
2023-09-06T15:03:25.194Z,5.38
2023-09-06T15:05:52.041Z,9.18
2023-09-06T15:08:19.284Z,4.28
2023-09-06T15:10:46.614Z,9.40
2023-09-06T15:13:13.784Z,3.88
2023-09-06T15:15:41.297Z,4.93
2023-09-06T15:18:08.110Z,7.78
2023-09-06T15:20:35.552Z,4.32
2023-09-06T15:23:02.221Z,3.75
2023-09-06T15:25:30.600Z,5.18
2023-09-06T15:27:57.344Z,5.25
2023-09-06T15:30:24.107Z,5.32
2023-09-06T15:32:50.950Z,7.53
2023-09-06T15:35:18.139Z,4.53
2023-09-06T15:40:38.379Z,6.90
2023-09-06T15:43:05.644Z,5.57
2023-09-06T15:45:33.259Z,4.82
2023-09-06T15:48:01.177Z,5.80
2023-09-06T15:50:29.751Z,6.32
2023-09-06T15:52:57.224Z,5.20
2023-09-06T15:55:24.296Z,7.45
2023-09-06T15:57:52.404Z,5.05
2023-09-06T16:00:31.650Z,7.03
2023-09-06T16:03:00.551Z,7.30
2023-09-06T16:05:28.710Z,5.90
2023-09-06T16:07:57.204Z,4.35
2023-09-06T16:10:25.976Z,5.75
2023-09-06T16:12:53.001Z,5.75
2023-09-06T16:15:23.476Z,6.18
2023-09-06T16:17:51.618Z,5.28
2023-09-06T16:20:20.245Z,3.88
2023-09-06T16:22:46.942Z,4.43
2023-09-06T16:25:14.263Z,5.38
2023-09-06T16:27:41.408Z,4.57
2023-09-06T16:30:10.415Z,7.53
2023-09-06T16:32:37.878Z,6.35
2023-09-06T16:35:11.097Z,8.35
2023-09-06T16:37:40.142Z,4.93
2023-09-06T16:40:12.496Z,10.57
2023-09-06T16:42:41.513Z,4.43
2023-09-06T16:45:09.402Z,5.35
2023-09-06T16:47:37.200Z,7.28
2023-09-06T16:50:04.295Z,4.95
2023-09-06T16:52:31.575Z,5.07
2023-09-06T16:55:01.635Z,4.38
2023-09-06T16:57:29.032Z,6.70
2023-09-06T16:59:55.908Z,5.32
2023-09-06T17:02:27.371Z,3.65
2023-09-06T17:04:55.800Z,6.75
2023-09-06T17:07:22.892Z,5.78
2023-09-06T17:09:50.177Z,3.50
2023-09-06T17:12:17.064Z,5.05
2023-09-06T17:14:43.774Z,4.13
2023-09-06T17:17:10.535Z,7.10
2023-09-06T17:19:40.525Z,5.22
2023-09-06T17:22:07.168Z,4.25
2023-09-06T17:24:33.994Z,4.43
2023-09-06T17:27:06.091Z,6.50
2023-09-06T17:29:38.378Z,5.90
2023-09-06T17:32:05.998Z,5.55
2023-09-06T17:34:34.480Z,3.55
2023-09-06T17:37:03.151Z,6.10
2023-09-06T17:39:29.900Z,5.95
2023-09-06T17:41:56.630Z,4.78
2023-09-06T17:44:23.297Z,7.15
2023-09-06T17:46:50.219Z,8.65
2023-09-06T17:49:16.945Z,7.55
2023-09-06T17:51:45.971Z,8.80
2023-09-06T17:54:14.348Z,7.53
2023-09-06T17:56:42.036Z,5.50
2023-09-06T17:59:08.706Z,11.77
2023-09-06T18:01:36.944Z,5.05
2023-09-06T18:04:05.497Z,9.23
2023-09-06T18:06:32.617Z,7.20
2023-09-06T18:08:59.923Z,5.25
2023-09-06T18:11:26.878Z,5.38
2023-09-06T18:13:53.884Z,9.48
2023-09-06T18:16:21.469Z,6.43
2023-09-06T18:18:51.903Z,5.82
2023-09-06T18:21:23.881Z,6.70
2023-09-06T18:23:52.790Z,5.50
2023-09-06T18:26:19.616Z,5.47
2023-09-06T18:28:47.765Z,6.88
2023-09-06T18:31:24.507Z,10.90
2023-09-06T18:33:52.012Z,4.60
2023-09-06T18:36:18.731Z,7.38
2023-09-06T18:38:45.371Z,6.25
2023-09-06T18:41:14.633Z,7.07
2023-09-06T18:43:41.852Z,5.22
2023-09-06T18:46:10.182Z,7.35
2023-09-06T18:48:38.849Z,6.18
2023-09-06T18:51:08.290Z,7.53
2023-09-06T18:53:36.979Z,7.05
2023-09-06T18:56:05.835Z,6.25
2023-09-06T18:58:34.403Z,5.95
2023-09-06T19:01:01.889Z,6.20
2023-09-06T19:03:29.103Z,5.88
2023-09-06T19:05:55.957Z,8.10
2023-09-06T19:08:23.191Z,6.05
2023-09-06T19:10:50.095Z,6.65
2023-09-06T19:13:17.417Z,8.30
2023-09-06T19:15:48.809Z,5.28
2023-09-06T19:18:17.704Z,5.97
2023-09-06T19:20:44.722Z,5.47
2023-09-06T19:23:18.303Z,6.20
2023-09-06T19:25:53.518Z,8.38
2023-09-06T19:28:23.031Z,7.43
2023-09-06T19:30:56.970Z,8.93
2023-09-06T19:33:24.433Z,7.47
2023-09-06T19:35:51.200Z,7.70
2023-09-06T19:38:21.318Z,4.93
2023-09-06T19:40:52.023Z,6.03
2023-09-06T19:43:20.435Z,10.23
2023-09-06T19:45:49.747Z,8.73
2023-09-06T19:48:17.952Z,5.22
2023-09-06T19:50:45.295Z,7.55
2023-09-06T19:53:12.053Z,7.32
2023-09-06T19:55:38.856Z,5.10
2023-09-06T19:58:05.699Z,7.75
2023-09-06T20:00:32.412Z,6.97
2023-09-06T20:02:59.232Z,6.70
2023-09-06T20:05:26.093Z,6.75
2023-09-06T20:07:54.951Z,5.28
2023-09-06T20:10:24.016Z,7.43
2023-09-06T20:12:51.628Z,10.48
2023-09-06T20:15:18.381Z,9.43
2023-09-06T20:17:45.380Z,7.13
2023-09-06T20:20:13.331Z,7.43
2023-09-06T20:22:40.149Z,6.88
2023-09-06T20:25:07.875Z,10.25
2023-09-06T20:27:36.712Z,7.80
2023-09-06T20:30:04.274Z,6.40
2023-09-06T20:32:31.719Z,8.70
2023-09-06T20:34:58.705Z,5.95
2023-09-06T20:37:26.116Z,8.68
2023-09-06T20:39:54.487Z,6.70
2023-09-06T20:42:21.361Z,7.75
2023-09-06T20:44:48.353Z,8.45
2023-09-06T20:47:15.067Z,9.82
2023-09-06T20:49:44.676Z,9.75
2023-09-06T20:52:11.795Z,6.57
2023-09-06T20:54:38.679Z,5.47
2023-09-06T20:57:05.742Z,9.27
2023-09-06T20:59:32.512Z,8.07
2023-09-06T21:01:59.260Z,7.18
2023-09-06T21:04:27.130Z,11.52
2023-09-06T21:06:54.039Z,6.30
2023-09-06T21:09:20.723Z,7.68
2023-09-06T21:11:47.318Z,9.88
2023-09-06T21:14:14.014Z,8.32
2023-09-06T21:16:40.679Z,9.23
2023-09-06T21:19:07.753Z,7.85
2023-09-06T21:21:34.328Z,12.30
2023-09-06T21:24:01.036Z,9.00
2023-09-06T21:26:27.711Z,9.35
2023-09-06T21:28:57.072Z,7.95
2023-09-06T21:31:23.897Z,9.32
2023-09-06T21:33:50.577Z,8.85
2023-09-06T21:36:17.375Z,9.43
2023-09-06T21:38:44.054Z,7.30
2023-09-06T21:41:11.587Z,5.47
2023-09-06T21:43:38.266Z,6.05
2023-09-06T21:46:05.015Z,6.07
2023-09-06T21:48:32.053Z,6.72
2023-09-06T21:51:15.353Z,7.85
2023-09-06T21:53:42.080Z,6.80
2023-09-06T21:56:10.051Z,14.98
2023-09-06T21:58:36.862Z,7.65
2023-09-06T22:01:03.830Z,7.00
2023-09-06T22:03:30.712Z,7.22
2023-09-06T22:05:58.103Z,8.68
2023-09-06T22:08:25.235Z,6.80
2023-09-06T22:10:51.931Z,6.10
2023-09-06T22:13:18.814Z,7.95
2023-09-06T22:15:45.578Z,5.88
2023-09-06T22:18:12.300Z,6.32
2023-09-06T22:20:41.458Z,9.38
2023-09-06T22:23:09.217Z,5.82
2023-09-06T22:25:36.370Z,7.30
2023-09-06T22:28:07.916Z,7.45
2023-09-06T22:30:39.515Z,5.63
2023-09-06T22:33:06.326Z,5.78
2023-09-06T22:35:33.392Z,7.57
2023-09-06T22:38:00.315Z,5.20
2023-09-06T22:40:26.959Z,6.13
2023-09-06T22:42:53.757Z,7.82
2023-09-06T22:45:20.440Z,7.18
2023-09-06T22:47:47.055Z,7.15
2023-09-06T22:50:13.973Z,6.97
2023-09-06T22:52:40.693Z,8.90
2023-09-06T22:55:09.608Z,7.47
2023-09-06T22:57:38.083Z,5.68
2023-09-06T23:00:07.707Z,6.75
2023-09-06T23:02:34.942Z,7.75
2023-09-06T23:05:01.691Z,6.15
2023-09-06T23:07:29.242Z,7.07
2023-09-06T23:09:56.674Z,7.15
2023-09-06T23:12:23.478Z,6.90
2023-09-06T23:14:50.380Z,7.65
2023-09-06T23:17:22.900Z,5.90
2023-09-06T23:19:52.783Z,9.45
2023-09-06T23:22:20.960Z,7.28
2023-09-06T23:24:50.638Z,8.73
2023-09-06T23:27:24.434Z,6.93
2023-09-06T23:29:57.072Z,6.07
2023-09-06T23:32:26.516Z,6.60
2023-09-06T23:34:55.221Z,5.47
2023-09-06T23:37:22.354Z,7.05
2023-09-06T23:39:50.065Z,11.25
2023-09-06T23:42:18.294Z,8.05
2023-09-06T23:44:47.163Z,6.15
2023-09-06T23:47:14.829Z,9.05
2023-09-06T23:49:43.911Z,6.00
2023-09-06T23:52:10.614Z,8.75
2023-09-06T23:54:47.369Z,9.38
2023-09-06T23:57:18.673Z,6.05
2023-09-06T23:59:45.729Z,5.75
